sensor_id;sensor_type;location;lat;lon;timestamp;pressure;altitude;pressure_sealevel;temperature;humidity
63090;BME280;49174;43.198;27.824;2022-08-19T00:01:55;101067.25;;;22.62;82.67
63090;BME280;49174;43.198;27.824;2022-08-19T00:04:25;101061.16;;;22.55;82.99
63090;BME280;49174;43.198;27.824;2022-08-19T00:06:51;101059.19;;;22.50;82.83
63090;BME280;49174;43.198;27.824;2022-08-19T00:09:19;101072.91;;;22.45;81.98
63090;BME280;49174;43.198;27.824;2022-08-19T00:11:45;101074.31;;;22.43;82.52
63090;BME280;49174;43.198;27.824;2022-08-19T00:14:13;101071.81;;;22.41;82.25
63090;BME280;49174;43.198;27.824;2022-08-19T00:16:40;101074.28;;;22.38;82.00
63090;BME280;49174;43.198;27.824;2022-08-19T00:19:07;101074.53;;;22.36;82.52
63090;BME280;49174;43.198;27.824;2022-08-19T00:21:33;101080.00;;;22.31;82.49
63090;BME280;49174;43.198;27.824;2022-08-19T00:24:03;101078.91;;;22.27;82.23
63090;BME280;49174;43.198;27.824;2022-08-19T00:26:29;101077.75;;;22.23;82.76
63090;BME280;49174;43.198;27.824;2022-08-19T00:28:55;101082.16;;;22.19;nan
63090;BME280;49174;43.198;27.824;2022-08-19T00:31:21;101083.47;;;22.16;83.15
63090;BME280;49174;43.198;27.824;2022-08-19T00:33:47;101081.25;;;22.13;82.84
63090;BME280;49174;43.198;27.824;2022-08-19T00:36:15;101081.78;;;22.10;83.10
63090;BME280;49174;43.198;27.824;2022-08-19T00:38:42;101072.97;;;22.08;83.39
63090;BME280;49174;43.198;27.824;2022-08-19T00:41:12;101072.41;;;22.06;84.20
63090;BME280;49174;43.198;27.824;2022-08-19T00:43:38;101073.25;;;22.06;84.63
63090;BME280;49174;43.198;27.824;2022-08-19T00:46:04;101080.66;;;22.06;84.67
63090;BME280;49174;43.198;27.824;2022-08-19T00:48:32;101076.25;;;22.05;84.47
63090;BME280;49174;43.198;27.824;2022-08-19T00:50:58;101071.31;;;22.02;83.93
63090;BME280;49174;43.198;27.824;2022-08-19T00:53:27;101078.41;;;21.98;83.61
63090;BME280;49174;43.198;27.824;2022-08-19T00:55:56;101081.97;;;21.93;83.39
63090;BME280;49174;43.198;27.824;2022-08-19T00:58:27;101085.50;;;21.89;83.72
63090;BME280;49174;43.198;27.824;2022-08-19T01:00:54;101085.44;;;21.83;84.03
63090;BME280;49174;43.198;27.824;2022-08-19T01:03:21;101083.25;;;21.80;84.81
63090;BME280;49174;43.198;27.824;2022-08-19T01:05:49;101082.13;;;21.76;85.49
63090;BME280;49174;43.198;27.824;2022-08-19T01:08:17;101077.69;;;21.75;85.68
63090;BME280;49174;43.198;27.824;2022-08-19T01:10:47;101077.69;;;21.75;87.44
63090;BME280;49174;43.198;27.824;2022-08-19T01:13:20;101086.50;;;21.77;87.96
63090;BME280;49174;43.198;27.824;2022-08-19T01:15:50;101075.53;;;21.77;88.47
63090;BME280;49174;43.198;27.824;2022-08-19T01:18:18;101074.72;;;21.77;87.89
63090;BME280;49174;43.198;27.824;2022-08-19T01:20:45;101072.00;;;21.82;89.77
63090;BME280;49174;43.198;27.824;2022-08-19T01:23:11;101075.03;;;21.85;89.41
63090;BME280;49174;43.198;27.824;2022-08-19T01:25:48;101070.13;;;21.88;89.78
63090;BME280;49174;43.198;27.824;2022-08-19T01:28:20;101072.59;;;21.89;90.52
63090;BME280;49174;43.198;27.824;2022-08-19T01:30:48;101072.03;;;21.87;90.78
63090;BME280;49174;43.198;27.824;2022-08-19T01:33:14;101074.50;;;21.89;91.40
63090;BME280;49174;43.198;27.824;2022-08-19T01:35:41;101072.34;;;21.91;91.33
63090;BME280;49174;43.198;27.824;2022-08-19T01:38:10;101072.34;;;21.91;92.28
63090;BME280;49174;43.198;27.824;2022-08-19T01:40:43;101067.94;;;21.95;92.17
63090;BME280;49174;43.198;27.824;2022-08-19T01:43:09;101074.59;;;21.99;91.48
63090;BME280;49174;43.198;27.824;2022-08-19T01:45:36;101063.59;;;21.99;91.91
63090;BME280;49174;43.198;27.824;2022-08-19T01:48:04;101079.25;;;21.98;91.46
63090;BME280;49174;43.198;27.824;2022-08-19T01:50:32;101065.19;;;21.95;91.63
63090;BME280;49174;43.198;27.824;2022-08-19T01:52:58;101064.94;;;21.96;91.61
63090;BME280;49174;43.198;27.824;2022-08-19T01:55:25;101063.03;;;21.97;91.52
63090;BME280;49174;43.198;27.824;2022-08-19T01:57:54;101054.78;;;21.97;90.96
63090;BME280;49174;43.198;27.824;2022-08-19T02:00:23;101060.53;;;21.95;91.02
63090;BME280;49174;43.198;27.824;2022-08-19T02:02:49;101061.91;;;21.93;90.72
63090;BME280;49174;43.198;27.824;2022-08-19T02:05:15;101062.69;;;21.88;90.59
63090;BME280;49174;43.198;27.824;2022-08-19T02:07:43;101063.22;;;21.85;90.20
63090;BME280;49174;43.198;27.824;2022-08-19T02:10:18;101063.75;;;21.82;90.73
63090;BME280;49174;43.198;27.824;2022-08-19T02:12:45;101057.69;;;21.80;90.56
63090;BME280;49174;43.198;27.824;2022-08-19T02:15:11;101062.09;;;21.81;91.21
63090;BME280;49174;43.198;27.824;2022-08-19T02:17:37;101054.13;;;21.79;90.80
63090;BME280;49174;43.198;27.824;2022-08-19T02:20:04;101052.19;;;21.80;91.53
63090;BME280;49174;43.198;27.824;2022-08-19T02:22:30;101054.94;;;21.80;91.21
63090;BME280;49174;43.198;27.824;2022-08-19T02:24:55;101054.13;;;21.79;91.36
63090;BME280;49174;43.198;27.824;2022-08-19T02:27:22;101052.19;;;21.80;92.06
63090;BME280;49174;43.198;27.824;2022-08-19T02:29:49;101042.00;;;21.75;92.11
63090;BME280;49174;43.198;27.824;2022-08-19T02:32:16;101051.34;;;21.74;92.62
63090;BME280;49174;43.198;27.824;2022-08-19T02:34:41;101054.38;;;21.78;91.91
63090;BME280;49174;43.198;27.824;2022-08-19T02:37:07;101052.44;;;21.78;91.96
63090;BME280;49174;43.198;27.824;2022-08-19T02:39:53;101054.38;;;21.78;91.66
63090;BME280;49174;43.198;27.824;2022-08-19T02:42:18;101061.50;;;21.74;92.04
63090;BME280;49174;43.198;27.824;2022-08-19T02:44:44;101057.09;;;21.73;92.65
63090;BME280;49174;43.198;27.824;2022-08-19T02:47:10;101049.69;;;21.73;91.99
63090;BME280;49174;43.198;27.824;2022-08-19T02:49:35;101048.84;;;21.73;92.37
63090;BME280;49174;43.198;27.824;2022-08-19T02:52:02;101045.81;;;21.69;92.84
63090;BME280;49174;43.198;27.824;2022-08-19T02:54:28;101047.44;;;21.65;93.32
63090;BME280;49174;43.198;27.824;2022-08-19T02:56:55;101045.81;;;21.69;92.56
63090;BME280;49174;43.198;27.824;2022-08-19T02:59:21;101052.41;;;21.68;92.33
63090;BME280;49174;43.198;27.824;2022-08-19T03:01:46;101057.28;;;21.61;92.93
63090;BME280;49174;43.198;27.824;2022-08-19T03:04:15;101052.34;;;21.63;93.11
63090;BME280;49174;43.198;27.824;2022-08-19T03:06:43;101052.94;;;21.65;92.75
63090;BME280;49174;43.198;27.824;2022-08-19T03:09:09;101058.97;;;21.67;92.18
63090;BME280;49174;43.198;27.824;2022-08-19T03:11:36;101056.22;;;21.67;92.59
63090;BME280;49174;43.198;27.824;2022-08-19T03:14:03;101063.94;;;21.70;92.04
63090;BME280;49174;43.198;27.824;2022-08-19T03:16:30;101066.19;;;21.73;91.33
63090;BME280;49174;43.198;27.824;2022-08-19T03:18:56;101071.66;;;21.73;90.82
63090;BME280;49174;43.198;27.824;2022-08-19T03:21:30;101077.97;;;21.74;90.97
63090;BME280;49174;43.198;27.824;2022-08-19T03:23:58;101070.00;;;21.72;89.98
63090;BME280;49174;43.198;27.824;2022-08-19T03:26:23;101074.66;;;21.72;89.82
63090;BME280;49174;43.198;27.824;2022-08-19T03:28:49;101071.09;;;21.71;90.37
63090;BME280;49174;43.198;27.824;2022-08-19T03:31:17;101078.75;;;21.69;89.23
63090;BME280;49174;43.198;27.824;2022-08-19T03:33:44;101080.94;;;21.67;88.92
63090;BME280;49174;43.198;27.824;2022-08-19T03:36:16;101078.16;;;21.62;88.58
63090;BME280;49174;43.198;27.824;2022-08-19T03:38:45;101084.44;;;21.57;88.67
63090;BME280;49174;43.198;27.824;2022-08-19T03:41:14;101083.28;;;21.53;89.23
63090;BME280;49174;43.198;27.824;2022-08-19T03:43:41;101089.53;;;21.44;88.10
63090;BME280;49174;43.198;27.824;2022-08-19T03:46:12;101091.47;;;21.43;88.63
63090;BME280;49174;43.198;27.824;2022-08-19T03:48:40;101098.28;;;21.40;87.20
63090;BME280;49174;43.198;27.824;2022-08-19T03:51:06;101101.63;;;21.42;87.08
63090;BME280;49174;43.198;27.824;2022-08-19T03:53:34;101106.81;;;21.44;87.54
63090;BME280;49174;43.198;27.824;2022-08-19T03:56:00;101109.31;;;21.46;86.46
63090;BME280;49174;43.198;27.824;2022-08-19T03:58:28;101121.44;;;21.50;86.97
63090;BME280;49174;43.198;27.824;2022-08-19T04:00:55;101119.84;;;21.54;86.44
63090;BME280;49174;43.198;27.824;2022-08-19T04:03:22;101113.25;;;21.55;86.46
63090;BME280;49174;43.198;27.824;2022-08-19T04:05:48;101109.97;;;21.58;86.38
63090;BME280;49174;43.198;27.824;2022-08-19T04:08:14;101111.94;;;21.62;85.63
63090;BME280;49174;43.198;27.824;2022-08-19T04:10:47;101110.03;;;21.63;86.31
63090;BME280;49174;43.198;27.824;2022-08-19T04:13:14;101117.16;;;21.64;86.50
63090;BME280;49174;43.198;27.824;2022-08-19T04:15:42;101109.25;;;21.68;85.78
63090;BME280;49174;43.198;27.824;2022-08-19T04:18:09;101114.22;;;21.71;85.78
63090;BME280;49174;43.198;27.824;2022-08-19T04:20:42;101119.47;;;21.77;84.87
63090;BME280;49174;43.198;27.824;2022-08-19T04:23:08;101118.41;;;21.83;85.40
63090;BME280;49174;43.198;27.824;2022-08-19T04:25:43;101116.00;;;21.92;84.54
63090;BME280;49174;43.198;27.824;2022-08-19T04:28:11;101124.81;;;21.94;84.55
63090;BME280;49174;43.198;27.824;2022-08-19T04:30:43;101134.69;;;21.95;84.55
63090;BME280;49174;43.198;27.824;2022-08-19T04:33:11;101129.25;;;22.00;83.99
63090;BME280;49174;43.198;27.824;2022-08-19T04:35:39;101129.81;;;22.02;84.24
63090;BME280;49174;43.198;27.824;2022-08-19T04:38:06;101133.19;;;22.09;84.55
63090;BME280;49174;43.198;27.824;2022-08-19T04:40:32;101128.88;;;22.19;83.42
63090;BME280;49174;43.198;27.824;2022-08-19T04:43:16;101127.81;;;22.25;83.12
63090;BME280;49174;43.198;27.824;2022-08-19T04:45:47;101131.41;;;22.30;83.57
63090;BME280;49174;43.198;27.824;2022-08-19T04:48:12;101130.91;;;22.39;83.00
63090;BME280;49174;43.198;27.824;2022-08-19T04:50:42;101143.88;;;22.43;82.59
63090;BME280;49174;43.198;27.824;2022-08-19T04:53:08;101141.97;;;22.49;82.82
63090;BME280;49174;43.198;27.824;2022-08-19T04:55:41;101141.47;;;22.57;83.08
63090;BME280;49174;43.198;27.824;2022-08-19T04:58:06;101133.53;;;22.66;83.00
63090;BME280;49174;43.198;27.824;2022-08-19T05:00:32;101142.09;;;22.74;83.50
63090;BME280;49174;43.198;27.824;2022-08-19T05:02:58;101136.63;;;22.85;83.41
63090;BME280;49174;43.198;27.824;2022-08-19T05:05:23;101136.34;;;22.86;82.42
63090;BME280;49174;43.198;27.824;2022-08-19T05:07:49;101137.50;;;22.95;82.09
63090;BME280;49174;43.198;27.824;2022-08-19T05:10:15;101135.91;;;23.05;83.01
63090;BME280;49174;43.198;27.824;2022-08-19T05:12:40;101140.59;;;23.14;82.69
63090;BME280;49174;43.198;27.824;2022-08-19T05:15:06;101137.88;;;23.25;82.06
63090;BME280;49174;43.198;27.824;2022-08-19T05:17:34;101134.59;;;23.33;81.87
63090;BME280;49174;43.198;27.824;2022-08-19T05:20:00;101134.63;;;23.43;80.70
63090;BME280;49174;43.198;27.824;2022-08-19T05:22:46;101136.00;;;23.56;80.17
63090;BME280;49174;43.198;27.824;2022-08-19T05:25:15;101134.06;;;23.67;80.29
63090;BME280;49174;43.198;27.824;2022-08-19T05:27:43;101141.81;;;23.75;80.14
63090;BME280;49174;43.198;27.824;2022-08-19T05:30:10;101137.41;;;23.84;80.12
63090;BME280;49174;43.198;27.824;2022-08-19T05:32:36;101129.69;;;23.96;79.56
63090;BME280;49174;43.198;27.824;2022-08-19T05:35:03;101123.06;;;24.13;78.77
63090;BME280;49174;43.198;27.824;2022-08-19T05:37:29;101118.06;;;24.30;76.34
63090;BME280;49174;43.198;27.824;2022-08-19T05:39:55;101128.25;;;24.45;74.96
63090;BME280;49174;43.198;27.824;2022-08-19T05:42:20;101129.03;;;24.61;72.75
63090;BME280;49174;43.198;27.824;2022-08-19T05:44:48;101131.69;;;24.76;70.76
63090;BME280;49174;43.198;27.824;2022-08-19T05:47:16;101122.81;;;24.89;71.02
63090;BME280;49174;43.198;27.824;2022-08-19T05:49:42;101120.25;;;25.03;70.45
63090;BME280;49174;43.198;27.824;2022-08-19T05:52:10;101124.06;;;25.17;69.56
63090;BME280;49174;43.198;27.824;2022-08-19T05:54:40;101120.69;;;25.31;68.57
63090;BME280;49174;43.198;27.824;2022-08-19T05:57:07;101107.88;;;25.45;68.93
63090;BME280;49174;43.198;27.824;2022-08-19T05:59:33;101113.31;;;25.55;67.29
63090;BME280;49174;43.198;27.824;2022-08-19T06:02:02;101115.44;;;25.69;68.33
63090;BME280;49174;43.198;27.824;2022-08-19T06:04:28;101125.28;;;25.80;66.98
63090;BME280;49174;43.198;27.824;2022-08-19T06:06:54;101120.50;;;25.91;66.21
63090;BME280;49174;43.198;27.824;2022-08-19T06:09:21;101117.63;;;26.01;65.59
63090;BME280;49174;43.198;27.824;2022-08-19T06:11:53;101113.06;;;26.15;65.77
63090;BME280;49174;43.198;27.824;2022-08-19T06:14:22;101101.31;;;26.28;65.48
63090;BME280;49174;43.198;27.824;2022-08-19T06:16:48;101104.78;;;26.39;64.31
63090;BME280;49174;43.198;27.824;2022-08-19T06:19:19;101099.97;;;26.50;64.19
63090;BME280;49174;43.198;27.824;2022-08-19T06:21:47;101107.06;;;26.61;65.08
63090;BME280;49174;43.198;27.824;2022-08-19T06:24:16;101106.63;;;26.73;63.51
63090;BME280;49174;43.198;27.824;2022-08-19T06:26:44;101092.34;;;26.85;63.50
63090;BME280;49174;43.198;27.824;2022-08-19T06:29:12;101093.56;;;26.98;62.76
63090;BME280;49174;43.198;27.824;2022-08-19T06:31:45;101095.81;;;27.14;62.76
63090;BME280;49174;43.198;27.824;2022-08-19T06:34:12;101094.47;;;27.31;60.98
63090;BME280;49174;43.198;27.824;2022-08-19T06:36:41;101097.50;;;27.48;60.31
63090;BME280;49174;43.198;27.824;2022-08-19T06:39:12;101087.81;;;27.65;61.28
63090;BME280;49174;43.198;27.824;2022-08-19T06:41:40;101093.03;;;27.85;61.15
63090;BME280;49174;43.198;27.824;2022-08-19T06:44:06;101095.13;;;28.07;61.61
63090;BME280;49174;43.198;27.824;2022-08-19T06:46:32;101087.25;;;28.28;59.96
63090;BME280;49174;43.198;27.824;2022-08-19T06:48:58;101090.78;;;28.47;59.25
63090;BME280;49174;43.198;27.824;2022-08-19T06:51:24;101090.63;;;28.66;59.14
63090;BME280;49174;43.198;27.824;2022-08-19T06:53:52;101096.56;;;28.87;58.04
63090;BME280;49174;43.198;27.824;2022-08-19T06:56:25;101097.78;;;29.09;57.57
63090;BME280;49174;43.198;27.824;2022-08-19T06:58:56;101095.16;;;29.26;55.93
63090;BME280;49174;43.198;27.824;2022-08-19T07:01:22;101099.22;;;29.43;55.56
63090;BME280;49174;43.198;27.824;2022-08-19T07:03:48;101098.16;;;29.61;55.29
63090;BME280;49174;43.198;27.824;2022-08-19T07:06:17;101094.41;;;29.79;54.71
63090;BME280;49174;43.198;27.824;2022-08-19T07:08:46;101095.66;;;29.96;54.28
63090;BME280;49174;43.198;27.824;2022-08-19T07:11:15;101092.75;;;30.10;52.87
63090;BME280;49174;43.198;27.824;2022-08-19T07:13:41;101088.75;;;30.24;51.73
63090;BME280;49174;43.198;27.824;2022-08-19T07:16:15;101078.53;;;30.42;51.12
63090;BME280;49174;43.198;27.824;2022-08-19T07:18:41;101076.72;;;30.55;51.34
63090;BME280;49174;43.198;27.824;2022-08-19T07:21:16;101074.97;;;30.68;50.13
63090;BME280;49174;43.198;27.824;2022-08-19T07:23:43;101077.16;;;30.80;50.23
63090;BME280;49174;43.198;27.824;2022-08-19T07:26:12;101071.88;;;30.87;50.21
63090;BME280;49174;43.198;27.824;2022-08-19T07:28:38;101077.81;;;31.03;49.47
63090;BME280;49174;43.198;27.824;2022-08-19T07:31:06;101067.66;;;31.15;48.09
63090;BME280;49174;43.198;27.824;2022-08-19T07:33:32;101066.34;;;31.30;49.50
63090;BME280;49174;43.198;27.824;2022-08-19T07:35:58;101074.69;;;31.48;48.30
63090;BME280;49174;43.198;27.824;2022-08-19T07:38:24;101064.16;;;31.62;48.43
63090;BME280;49174;43.198;27.824;2022-08-19T07:40:50;101077.91;;;31.76;49.06
63090;BME280;49174;43.198;27.824;2022-08-19T07:43:17;101072.47;;;31.88;47.90
63090;BME280;49174;43.198;27.824;2022-08-19T07:45:55;101073.94;;;32.03;47.09
63090;BME280;49174;43.198;27.824;2022-08-19T07:48:25;101067.44;;;32.20;48.98
63090;BME280;49174;43.198;27.824;2022-08-19T07:50:55;101070.81;;;32.34;46.41
63090;BME280;49174;43.198;27.824;2022-08-19T07:53:22;101065.38;;;32.46;46.42
63090;BME280;49174;43.198;27.824;2022-08-19T07:55:48;101065.81;;;32.57;46.11
63090;BME280;49174;43.198;27.824;2022-08-19T07:58:18;101070.66;;;32.69;44.74
63090;BME280;49174;43.198;27.824;2022-08-19T08:00:45;101070.09;;;32.76;44.17
63090;BME280;49174;43.198;27.824;2022-08-19T08:03:12;101064.44;;;32.84;43.61
63090;BME280;49174;43.198;27.824;2022-08-19T08:05:38;101061.75;;;32.97;44.03
63090;BME280;49174;43.198;27.824;2022-08-19T08:08:22;101058.53;;;33.07;42.91
63090;BME280;49174;43.198;27.824;2022-08-19T08:11:07;101062.19;;;33.07;43.44
63090;BME280;49174;43.198;27.824;2022-08-19T08:13:33;101053.03;;;33.19;43.59
63090;BME280;49174;43.198;27.824;2022-08-19T08:16:01;101052.53;;;33.38;43.31
63090;BME280;49174;43.198;27.824;2022-08-19T08:18:27;101048.69;;;33.43;42.19
63090;BME280;49174;43.198;27.824;2022-08-19T08:20:53;101049.63;;;33.47;41.15
63090;BME280;49174;43.198;27.824;2022-08-19T08:23:19;101046.16;;;33.50;41.07
63090;BME280;49174;43.198;27.824;2022-08-19T08:25:48;101048.28;;;33.53;40.96
63090;BME280;49174;43.198;27.824;2022-08-19T08:28:15;101050.66;;;33.63;41.44
63090;BME280;49174;43.198;27.824;2022-08-19T08:30:41;101047.97;;;33.79;42.56
63090;BME280;49174;43.198;27.824;2022-08-19T08:33:08;101044.25;;;33.87;40.89
63090;BME280;49174;43.198;27.824;2022-08-19T08:35:33;101033.31;;;33.94;38.92
63090;BME280;49174;43.198;27.824;2022-08-19T08:37:59;101036.81;;;34.03;39.87
63090;BME280;49174;43.198;27.824;2022-08-19T08:40:57;101035.41;;;33.97;39.35
63090;BME280;49174;43.198;27.824;2022-08-19T08:43:44;101038.06;;;33.81;40.93
63090;BME280;49174;43.198;27.824;2022-08-19T08:46:39;101035.53;;;33.89;39.70
63090;BME280;49174;43.198;27.824;2022-08-19T08:52:07;101037.19;;;34.26;40.04
63090;BME280;49174;43.198;27.824;2022-08-19T08:54:39;101022.25;;;34.47;39.29
63090;BME280;49174;43.198;27.824;2022-08-19T08:57:12;101033.22;;;34.64;39.35
63090;BME280;49174;43.198;27.824;2022-08-19T08:59:40;101028.28;;;34.74;37.51
63090;BME280;49174;43.198;27.824;2022-08-19T09:02:08;101021.50;;;34.75;37.89
63090;BME280;49174;43.198;27.824;2022-08-19T09:04:36;101018.91;;;34.82;38.30
63090;BME280;49174;43.198;27.824;2022-08-19T09:09:43;101024.84;;;34.92;37.54
63090;BME280;49174;43.198;27.824;2022-08-19T09:14:59;101039.63;;;35.05;37.22
63090;BME280;49174;43.198;27.824;2022-08-19T09:17:28;101040.22;;;35.11;37.23
63090;BME280;49174;43.198;27.824;2022-08-19T09:20:01;101037.53;;;35.02;36.74
63090;BME280;49174;43.198;27.824;2022-08-19T09:22:34;101027.25;;;35.06;36.91
63090;BME280;49174;43.198;27.824;2022-08-19T09:25:00;101036.25;;;35.12;36.42
63090;BME280;49174;43.198;27.824;2022-08-19T09:27:27;101031.44;;;35.12;36.76
63090;BME280;49174;43.198;27.824;2022-08-19T09:29:53;101040.63;;;35.25;37.15
63090;BME280;49174;43.198;27.824;2022-08-19T09:32:20;101035.06;;;35.41;36.37
63090;BME280;49174;43.198;27.824;2022-08-19T09:34:46;101037.56;;;35.46;36.36
63090;BME280;49174;43.198;27.824;2022-08-19T09:37:12;101036.03;;;35.61;36.46
63090;BME280;49174;43.198;27.824;2022-08-19T09:39:39;101038.66;;;35.70;35.93
63090;BME280;49174;43.198;27.824;2022-08-19T09:42:07;101037.91;;;35.57;35.63
63090;BME280;49174;43.198;27.824;2022-08-19T09:44:41;101036.84;;;35.33;35.61
63090;BME280;49174;43.198;27.824;2022-08-19T09:47:08;101041.91;;;35.44;36.10
63090;BME280;49174;43.198;27.824;2022-08-19T09:49:34;101034.91;;;35.66;35.80
63090;BME280;49174;43.198;27.824;2022-08-19T09:52:00;101041.91;;;35.72;35.56
63090;BME280;49174;43.198;27.824;2022-08-19T09:54:26;101029.28;;;35.50;35.97
63090;BME280;49174;43.198;27.824;2022-08-19T09:56:53;101039.09;;;35.28;36.83
63090;BME280;49174;43.198;27.824;2022-08-19T09:59:18;101041.28;;;35.06;35.84
63090;BME280;49174;43.198;27.824;2022-08-19T10:01:44;101036.34;;;35.16;36.24
63090;BME280;49174;43.198;27.824;2022-08-19T10:04:10;101041.28;;;35.34;35.26
63090;BME280;49174;43.198;27.824;2022-08-19T10:06:38;101037.41;;;35.39;35.33
63090;BME280;49174;43.198;27.824;2022-08-19T10:09:06;101037.00;;;35.25;34.86
63090;BME280;49174;43.198;27.824;2022-08-19T10:11:36;101036.03;;;35.33;35.66
63090;BME280;49174;43.198;27.824;2022-08-19T10:14:03;101034.34;;;35.44;34.74
63090;BME280;49174;43.198;27.824;2022-08-19T10:16:31;101038.72;;;35.29;35.06
63090;BME280;49174;43.198;27.824;2022-08-19T10:18:57;101037.06;;;35.00;36.31
63090;BME280;49174;43.198;27.824;2022-08-19T10:21:26;101042.38;;;34.89;37.29
63090;BME280;49174;43.198;27.824;2022-08-19T10:23:56;101041.00;;;34.83;36.48
63090;BME280;49174;43.198;27.824;2022-08-19T10:26:31;101035.66;;;34.66;35.29
63090;BME280;49174;43.198;27.824;2022-08-19T10:28:57;101031.88;;;34.86;34.93
63090;BME280;49174;43.198;27.824;2022-08-19T10:31:28;101031.66;;;35.20;35.61
63090;BME280;49174;43.198;27.824;2022-08-19T10:33:55;101029.00;;;34.99;35.49
63090;BME280;49174;43.198;27.824;2022-08-19T10:36:32;101033.53;;;34.75;35.76
63090;BME280;49174;43.198;27.824;2022-08-19T10:39:00;101037.09;;;34.88;34.96
63090;BME280;49174;43.198;27.824;2022-08-19T10:41:37;101040.94;;;35.36;35.86
63090;BME280;49174;43.198;27.824;2022-08-19T10:44:09;101035.66;;;35.63;34.00
63090;BME280;49174;43.198;27.824;2022-08-19T10:46:37;101040.78;;;35.61;34.58
63090;BME280;49174;43.198;27.824;2022-08-19T10:49:08;101027.88;;;35.44;33.40
63090;BME280;49174;43.198;27.824;2022-08-19T10:51:35;101029.38;;;35.53;34.28
63090;BME280;49174;43.198;27.824;2022-08-19T10:54:20;101033.13;;;35.73;33.10
63090;BME280;49174;43.198;27.824;2022-08-19T10:56:46;101030.78;;;36.07;33.32
63090;BME280;49174;43.198;27.824;2022-08-19T10:59:28;101029.91;;;36.38;33.55
63090;BME280;49174;43.198;27.824;2022-08-19T11:01:59;101038.59;;;36.65;33.66
63090;BME280;49174;43.198;27.824;2022-08-19T11:04:26;101039.34;;;36.81;33.18
63090;BME280;49174;43.198;27.824;2022-08-19T11:06:52;101030.91;;;36.62;32.05
63090;BME280;49174;43.198;27.824;2022-08-19T11:09:23;101038.47;;;36.26;31.75
63090;BME280;49174;43.198;27.824;2022-08-19T11:11:50;101032.78;;;36.22;31.20
63090;BME280;49174;43.198;27.824;2022-08-19T11:14:19;101028.81;;;36.43;31.55
63090;BME280;49174;43.198;27.824;2022-08-19T11:16:47;101039.16;;;36.55;30.82
63090;BME280;49174;43.198;27.824;2022-08-19T11:19:13;101038.31;;;36.70;32.16
63090;BME280;49174;43.198;27.824;2022-08-19T11:21:43;101040.97;;;36.47;34.86
63090;BME280;49174;43.198;27.824;2022-08-19T11:24:15;101046.69;;;35.27;39.99
63090;BME280;49174;43.198;27.824;2022-08-19T11:26:42;101034.97;;;34.69;40.53
63090;BME280;49174;43.198;27.824;2022-08-19T11:29:11;101035.44;;;33.52;44.43
63090;BME280;49174;43.198;27.824;2022-08-19T11:31:40;101025.78;;;33.28;44.77
63090;BME280;49174;43.198;27.824;2022-08-19T11:34:09;101022.47;;;33.80;45.99
63090;BME280;49174;43.198;27.824;2022-08-19T11:36:39;101034.31;;;33.65;45.42
63090;BME280;49174;43.198;27.824;2022-08-19T11:39:06;101032.03;;;33.46;46.46
63090;BME280;49174;43.198;27.824;2022-08-19T11:41:33;101036.78;;;32.91;46.79
63090;BME280;49174;43.198;27.824;2022-08-19T11:43:59;101031.16;;;32.20;47.28
63090;BME280;49174;43.198;27.824;2022-08-19T11:46:26;101035.19;;;32.31;48.12
63090;BME280;49174;43.198;27.824;2022-08-19T11:48:55;101031.06;;;32.46;48.60
63090;BME280;49174;43.198;27.824;2022-08-19T11:51:23;101038.28;;;32.38;49.46
63090;BME280;49174;43.198;27.824;2022-08-19T11:53:54;101032.69;;;32.47;49.50
63090;BME280;49174;43.198;27.824;2022-08-19T11:56:21;101026.38;;;32.20;50.95
63090;BME280;49174;43.198;27.824;2022-08-19T11:58:47;101034.50;;;32.13;50.08
63090;BME280;49174;43.198;27.824;2022-08-19T12:01:17;101028.91;;;32.13;47.99
63090;BME280;49174;43.198;27.824;2022-08-19T12:03:44;101023.81;;;32.15;48.57
63090;BME280;49174;43.198;27.824;2022-08-19T12:06:13;101025.66;;;32.62;49.06
63090;BME280;49174;43.198;27.824;2022-08-19T12:08:40;101035.97;;;32.91;47.97
63090;BME280;49174;43.198;27.824;2022-08-19T12:11:06;101037.63;;;33.13;46.22
63090;BME280;49174;43.198;27.824;2022-08-19T12:13:33;101031.97;;;33.22;45.25
63090;BME280;49174;43.198;27.824;2022-08-19T12:15:59;101040.25;;;32.67;47.51
63090;BME280;49174;43.198;27.824;2022-08-19T12:18:26;101037.47;;;32.38;47.97
63090;BME280;49174;43.198;27.824;2022-08-19T12:20:52;101042.22;;;32.08;48.21
63090;BME280;49174;43.198;27.824;2022-08-19T12:23:20;101032.09;;;31.94;48.21
63090;BME280;49174;43.198;27.824;2022-08-19T12:25:48;101034.59;;;31.78;51.25
63090;BME280;49174;43.198;27.824;2022-08-19T12:28:19;101036.25;;;31.79;50.61
63090;BME280;49174;43.198;27.824;2022-08-19T12:30:46;101034.91;;;31.94;50.66
63090;BME280;49174;43.198;27.824;2022-08-19T12:33:11;101035.97;;;32.11;49.77
63090;BME280;49174;43.198;27.824;2022-08-19T12:35:43;101036.69;;;31.90;49.28
63090;BME280;49174;43.198;27.824;2022-08-19T12:38:10;101038.50;;;31.86;49.13
63090;BME280;49174;43.198;27.824;2022-08-19T12:40:36;101042.69;;;31.63;49.38
63090;BME280;49174;43.198;27.824;2022-08-19T12:43:02;101040.09;;;31.57;49.58
63090;BME280;49174;43.198;27.824;2022-08-19T12:45:27;101046.06;;;31.86;49.05
63090;BME280;49174;43.198;27.824;2022-08-19T12:47:53;101034.97;;;31.68;49.69
63090;BME280;49174;43.198;27.824;2022-08-19T12:50:19;101039.28;;;31.48;49.35
63090;BME280;49174;43.198;27.824;2022-08-19T12:52:46;101041.28;;;31.13;50.69
63090;BME280;49174;43.198;27.824;2022-08-19T12:55:12;101045.59;;;30.53;52.29